createdAt,value
2023-05-02T00:02:06.392Z,48.93
2023-05-02T00:04:34.285Z,48.53
2023-05-02T00:07:01.581Z,48.89
2023-05-02T00:09:29.714Z,48.91
2023-05-02T00:11:58.255Z,48.34
2023-05-02T00:14:26.293Z,48.18
2023-05-02T00:16:54.096Z,46.99
2023-05-02T00:19:21.928Z,43.23
2023-05-02T00:21:50.723Z,43.60
2023-05-02T00:24:21.016Z,41.12
2023-05-02T00:26:48.801Z,40.35
2023-05-02T00:29:16.364Z,39.01
2023-05-02T00:31:44.464Z,38.96
2023-05-02T00:34:12.436Z,40.40
2023-05-02T00:36:40.097Z,38.84
2023-05-02T00:39:07.784Z,38.00
2023-05-02T00:41:35.867Z,37.17
2023-05-02T00:44:03.327Z,38.00
2023-05-02T00:46:31.355Z,37.96
2023-05-02T00:48:59.351Z,37.11
2023-05-02T00:51:27.831Z,37.15
2023-05-02T00:53:55.231Z,37.09
2023-05-02T00:56:22.834Z,36.24
2023-05-02T00:58:50.239Z,37.08
2023-05-02T01:01:21.062Z,39.43
2023-05-02T01:04:09.369Z,37.42
2023-05-02T01:06:56.233Z,37.13
2023-05-02T01:09:27.750Z,36.71
2023-05-02T01:12:13.828Z,36.57
2023-05-02T01:14:42.412Z,36.59
2023-05-02T01:17:15.366Z,37.37
2023-05-02T01:19:51.383Z,37.31
2023-05-02T01:22:19.907Z,36.18
2023-05-02T01:25:00.816Z,36.33
2023-05-02T01:27:29.134Z,36.11
2023-05-02T01:29:57.701Z,36.15
2023-05-02T01:32:25.388Z,36.55
2023-05-02T01:34:52.900Z,37.77
2023-05-02T01:37:20.806Z,36.77
2023-05-02T01:39:48.124Z,37.37
2023-05-02T01:42:15.554Z,36.38
2023-05-02T01:44:44.611Z,36.39
2023-05-02T01:47:11.914Z,36.12
2023-05-02T01:49:39.522Z,36.47
2023-05-02T01:52:08.517Z,37.44
2023-05-02T01:54:35.998Z,37.17
2023-05-02T01:57:05.238Z,36.60
2023-05-02T01:59:34.022Z,36.59
2023-05-02T02:02:02.098Z,36.63
2023-05-02T02:04:30.137Z,36.67
2023-05-02T02:07:04.190Z,38.47
2023-05-02T02:09:32.230Z,38.29
2023-05-02T02:12:06.532Z,37.33
2023-05-02T02:14:35.699Z,37.43
2023-05-02T02:17:06.621Z,38.86
2023-05-02T02:19:35.793Z,39.76
2023-05-02T02:22:03.817Z,39.36
2023-05-02T02:24:31.062Z,39.99
2023-05-02T02:26:59.180Z,39.34
2023-05-02T02:29:28.421Z,38.77
2023-05-02T02:31:55.675Z,38.46
2023-05-02T02:34:23.216Z,39.94
2023-05-02T02:36:53.743Z,40.26
2023-05-02T02:39:40.239Z,40.12
2023-05-02T02:42:33.521Z,40.09
2023-05-02T02:45:15.630Z,39.94
2023-05-02T02:47:51.056Z,40.90
2023-05-02T02:50:37.093Z,41.97
2023-05-02T02:53:09.545Z,40.92
2023-05-02T02:55:46.638Z,40.74
2023-05-02T02:58:21.718Z,42.49
2023-05-02T03:00:49.962Z,42.42
2023-05-02T03:03:17.788Z,43.35
2023-05-02T03:05:45.395Z,43.69
2023-05-02T03:08:13.805Z,42.81
2023-05-02T03:10:41.923Z,42.38
2023-05-02T03:13:13.445Z,42.33
2023-05-02T03:15:54.259Z,43.62
2023-05-02T03:18:22.816Z,43.62
2023-05-02T03:20:51.011Z,43.95
2023-05-02T03:23:19.203Z,44.34
2023-05-02T03:25:53.880Z,44.42
2023-05-02T03:28:22.834Z,44.50
2023-05-02T03:30:51.320Z,44.81
2023-05-02T03:33:25.676Z,44.39
2023-05-02T03:35:55.746Z,44.28
2023-05-02T03:38:23.889Z,44.56
2023-05-02T03:40:51.849Z,44.95
2023-05-02T03:43:19.889Z,44.50
2023-05-02T03:45:48.804Z,45.05
2023-05-02T03:48:17.466Z,44.14
2023-05-02T03:50:45.770Z,45.75
2023-05-02T03:53:16.148Z,45.93
2023-05-02T03:55:44.582Z,46.33
2023-05-02T03:58:13.519Z,45.71
2023-05-02T04:00:42.952Z,46.31
2023-05-02T04:03:12.220Z,47.20
2023-05-02T04:05:45.461Z,46.60
2023-05-02T04:08:15.457Z,46.31
2023-05-02T04:10:43.282Z,46.63
2023-05-02T04:13:19.564Z,45.73
2023-05-02T04:15:58.703Z,44.65
2023-05-02T04:18:35.241Z,44.45
2023-05-02T04:21:04.810Z,44.10
2023-05-02T04:23:33.569Z,43.54
2023-05-02T04:26:02.562Z,44.01
2023-05-02T04:28:31.040Z,43.57
2023-05-02T04:31:07.770Z,43.27
2023-05-02T04:33:39.651Z,43.46
2023-05-02T04:36:14.073Z,42.51
2023-05-02T04:38:43.170Z,41.46
2023-05-02T04:41:11.373Z,42.76
2023-05-02T04:43:40.631Z,42.49
2023-05-02T04:46:09.334Z,42.31
2023-05-02T04:48:43.691Z,42.12
2023-05-02T04:51:19.503Z,42.19
2023-05-02T04:53:52.098Z,42.55
2023-05-02T04:56:20.086Z,41.93
2023-05-02T04:58:51.588Z,41.43
2023-05-02T05:01:19.720Z,42.72
2023-05-02T05:03:49.106Z,41.44
2023-05-02T05:06:24.578Z,41.07
2023-05-02T05:08:54.848Z,41.47
2023-05-02T05:11:23.968Z,40.90
2023-05-02T05:13:52.560Z,41.23
2023-05-02T05:16:21.758Z,41.21
2023-05-02T05:18:50.270Z,41.45
2023-05-02T05:21:22.574Z,40.19
2023-05-02T05:23:53.408Z,40.25
2023-05-02T05:26:29.572Z,39.77
2023-05-02T05:29:00.678Z,40.46
2023-05-02T05:31:30.683Z,39.65
2023-05-02T05:33:59.221Z,40.62
2023-05-02T05:36:28.050Z,39.62
2023-05-02T05:38:55.842Z,39.78
2023-05-02T05:41:30.678Z,40.15
2023-05-02T05:43:59.508Z,40.86
2023-05-02T05:46:28.212Z,39.77
2023-05-02T05:48:57.777Z,40.17
2023-05-02T05:51:27.982Z,40.34
2023-05-02T05:53:59.514Z,40.78
2023-05-02T05:56:30.527Z,40.90
2023-05-02T05:58:58.885Z,41.64
2023-05-02T06:01:29.834Z,40.29
2023-05-02T06:03:59.637Z,40.75
2023-05-02T06:06:31.765Z,40.69
2023-05-02T06:09:00.362Z,39.83
2023-05-02T06:11:28.254Z,40.60
2023-05-02T06:14:13.527Z,40.88
2023-05-02T06:17:16.545Z,40.55
2023-05-02T06:20:26.909Z,41.29
2023-05-02T06:22:55.608Z,40.27
2023-05-02T06:25:39.648Z,39.66
2023-05-02T06:28:12.344Z,39.88
2023-05-02T06:30:46.852Z,39.60
2023-05-02T06:33:15.193Z,39.05
2023-05-02T06:35:43.813Z,39.24
2023-05-02T06:38:16.582Z,39.14
2023-05-02T06:40:52.553Z,38.67
2023-05-02T06:43:21.677Z,38.79
2023-05-02T06:45:53.505Z,38.80
2023-05-02T06:48:22.205Z,38.85
2023-05-02T06:50:52.326Z,38.17
2023-05-02T06:53:26.739Z,39.43
2023-05-02T06:55:54.863Z,39.78
2023-05-02T06:58:23.106Z,39.38
2023-05-02T07:00:55.803Z,39.09
2023-05-02T07:03:24.764Z,36.99
2023-05-02T07:05:59.339Z,38.10
2023-05-02T07:08:30.452Z,37.60
2023-05-02T07:10:58.448Z,38.62
2023-05-02T07:13:26.937Z,37.49
2023-05-02T07:16:01.606Z,37.51
2023-05-02T07:18:31.997Z,36.86
2023-05-02T07:21:24.902Z,36.93
2023-05-02T07:24:05.550Z,36.95
2023-05-02T07:26:56.126Z,36.27
2023-05-02T07:33:57.227Z,36.49
2023-05-02T07:36:41.463Z,36.35
2023-05-02T07:39:24.665Z,36.01
2023-05-02T07:42:11.586Z,36.25
2023-05-02T07:44:53.888Z,35.94
2023-05-02T07:47:36.910Z,35.26
2023-05-02T07:50:31.166Z,35.11
2023-05-02T07:53:14.736Z,34.78
2023-05-02T07:55:57.346Z,34.61
2023-05-02T07:58:52.644Z,35.12
2023-05-02T08:01:33.328Z,35.46
2023-05-02T08:04:19.201Z,34.66
2023-05-02T08:07:15.093Z,35.34
2023-05-02T08:10:00.560Z,34.43
2023-05-02T08:12:52.588Z,35.17
2023-05-02T08:15:34.528Z,34.14
2023-05-02T08:18:17.759Z,34.09
2023-05-02T08:21:13.186Z,35.00
2023-05-02T08:23:52.879Z,34.90
2023-05-02T08:26:45.819Z,34.26
2023-05-02T08:29:26.864Z,34.69
2023-05-02T08:32:18.794Z,33.52
2023-05-02T08:34:59.183Z,34.53
2023-05-02T08:37:50.873Z,34.30
2023-05-02T08:40:40.864Z,32.97
2023-05-02T08:43:24.338Z,32.66
2023-05-02T08:46:11.508Z,33.33
2023-05-02T08:48:59.094Z,33.27
2023-05-02T08:51:51.843Z,33.20
2023-05-02T08:54:37.670Z,32.39
2023-05-02T08:57:21.015Z,33.60
2023-05-02T09:00:16.833Z,32.62
2023-05-02T09:02:58.876Z,33.27
2023-05-02T09:05:55.077Z,32.29
2023-05-02T09:08:37.884Z,32.74
2023-05-02T09:11:34.873Z,34.37
2023-05-02T09:14:18.094Z,33.10
2023-05-02T09:17:13.777Z,32.14
2023-05-02T09:20:01.192Z,31.60
2023-05-02T09:22:54.951Z,33.19
2023-05-02T09:25:39.716Z,32.09
2023-05-02T09:28:21.632Z,31.28
2023-05-02T09:31:22.971Z,30.74
2023-05-02T09:34:08.659Z,30.91
2023-05-02T09:39:46.998Z,31.59
2023-05-02T09:42:34.317Z,32.96
2023-05-02T09:45:27.820Z,31.10
2023-05-02T09:48:08.663Z,31.66
2023-05-02T09:50:51.153Z,30.22
2023-05-02T09:53:34.862Z,30.76
2023-05-02T09:59:14.146Z,31.49
2023-05-02T10:02:10.539Z,30.32
2023-05-02T10:05:03.393Z,30.61
2023-05-02T10:07:47.220Z,30.14
2023-05-02T10:10:46.257Z,29.30
2023-05-02T10:16:26.576Z,29.98
2023-05-02T10:19:13.498Z,29.16
2023-05-02T10:22:06.249Z,28.99
2023-05-02T10:24:56.137Z,29.36
2023-05-02T10:31:50.946Z,28.26
2023-05-02T10:34:41.834Z,29.01
2023-05-02T10:41:35.693Z,28.95
2023-05-02T10:44:39.732Z,29.24
2023-05-02T10:47:33.808Z,30.04
2023-05-02T10:50:43.401Z,29.08
2023-05-02T10:53:27.199Z,28.84
2023-05-02T10:56:25.872Z,27.96
2023-05-02T10:59:33.282Z,28.43
2023-05-02T11:02:31.239Z,27.73
2023-05-02T11:05:15.216Z,28.83
2023-05-02T11:08:17.963Z,29.57
2023-05-02T11:11:00.485Z,30.12
2023-05-02T11:13:50.715Z,30.12
2023-05-02T11:16:59.094Z,30.02
2023-05-02T11:19:44.616Z,30.55
2023-05-02T11:26:23.485Z,30.39
2023-05-02T11:29:31.858Z,30.39
2023-05-02T11:32:14.686Z,30.18
2023-05-02T11:35:10.655Z,31.64
2023-05-02T11:38:00.754Z,29.66
2023-05-02T11:40:58.196Z,28.65
2023-05-02T11:44:03.542Z,28.84
2023-05-02T11:46:49.830Z,27.70
2023-05-02T11:49:38.873Z,28.32
2023-05-02T11:52:22.160Z,28.05
2023-05-02T11:55:14.602Z,28.47
2023-05-02T11:58:08.552Z,27.65
2023-05-02T12:00:52.306Z,27.54
2023-05-02T12:03:38.879Z,27.02
2023-05-02T12:06:34.153Z,26.99
2023-05-02T12:09:17.534Z,26.41
2023-05-02T12:12:10.835Z,26.73
2023-05-02T12:14:54.028Z,25.99
2023-05-02T12:17:52.453Z,27.03
2023-05-02T12:20:33.700Z,25.33
2023-05-02T12:23:01.633Z,26.41
2023-05-02T12:25:30.164Z,25.85
2023-05-02T12:30:54.069Z,25.82
2023-05-02T12:33:48.671Z,26.41
2023-05-02T12:37:23.650Z,25.77
2023-05-02T12:40:17.809Z,25.52
2023-05-02T12:43:11.709Z,26.62
2023-05-02T12:45:57.636Z,27.05
2023-05-02T12:49:01.898Z,26.62
2023-05-02T12:51:59.704Z,26.62
2023-05-02T12:55:00.890Z,26.85
2023-05-02T12:57:44.533Z,27.29
2023-05-02T13:00:47.255Z,27.64
2023-05-02T13:03:29.792Z,27.48
2023-05-02T13:06:15.211Z,26.60
2023-05-02T13:09:08.244Z,27.42
2023-05-02T13:11:49.488Z,26.85
2023-05-02T13:14:40.958Z,26.95
2023-05-02T13:17:28.977Z,27.07
2023-05-02T13:20:10.930Z,26.19
2023-05-02T13:22:54.719Z,27.51
2023-05-02T13:25:51.530Z,26.88
2023-05-02T13:28:46.520Z,26.67
2023-05-02T13:31:32.889Z,26.65
2023-05-02T13:34:18.533Z,27.27
2023-05-02T13:40:14.626Z,26.98
2023-05-02T13:42:43.093Z,26.68
2023-05-02T13:45:32.969Z,26.69
2023-05-02T13:48:52.899Z,26.06
2023-05-02T13:55:18.631Z,26.63
2023-05-02T13:58:01.737Z,26.97
2023-05-02T14:00:58.693Z,27.60
2023-05-02T14:03:55.384Z,27.01
2023-05-02T14:06:40.520Z,27.25
2023-05-02T14:12:10.920Z,27.59
2023-05-02T14:14:50.666Z,27.60
2023-05-02T14:17:46.739Z,27.00
2023-05-02T14:20:35.766Z,27.22
2023-05-02T14:23:31.629Z,27.91
2023-05-02T14:26:12.976Z,27.36
2023-05-02T14:29:08.251Z,28.37
2023-05-02T14:31:55.700Z,28.29
2023-05-02T14:34:39.447Z,27.27
2023-05-02T14:37:24.178Z,27.55
2023-05-02T14:40:08.350Z,28.02
2023-05-02T14:46:32.536Z,27.57
2023-05-02T14:49:27.397Z,27.40
2023-05-02T14:52:10.065Z,28.33
2023-05-02T14:55:08.086Z,27.95
2023-05-02T14:57:59.540Z,27.76
2023-05-02T15:00:46.936Z,27.79
2023-05-02T15:03:33.043Z,27.51
2023-05-02T15:06:16.856Z,27.15
2023-05-02T15:09:13.170Z,27.74
2023-05-02T15:11:58.636Z,27.40
2023-05-02T15:14:44.828Z,26.88
2023-05-02T15:17:28.589Z,27.41
2023-05-02T15:23:07.689Z,27.20
2023-05-02T15:25:52.648Z,27.56
2023-05-02T15:28:41.703Z,28.02
2023-05-02T15:31:26.677Z,28.60
2023-05-02T15:34:25.159Z,27.96
2023-05-02T15:40:58.821Z,28.17
2023-05-02T15:43:53.023Z,30.27
2023-05-02T15:46:47.247Z,32.96
2023-05-02T15:49:33.218Z,35.34
2023-05-02T15:52:25.839Z,36.15
2023-05-02T15:55:12.261Z,35.15
2023-05-02T15:58:10.653Z,34.93
2023-05-02T16:00:57.926Z,35.25
2023-05-02T16:03:51.442Z,35.61
2023-05-02T16:06:31.210Z,34.71
2023-05-02T16:09:21.600Z,35.60
2023-05-02T16:12:03.958Z,35.62
2023-05-02T16:14:57.234Z,35.22
2023-05-02T16:17:48.008Z,35.30
2023-05-02T16:20:43.404Z,34.71
2023-05-02T16:23:32.616Z,35.27
2023-05-02T16:26:28.155Z,36.01
2023-05-02T16:31:54.720Z,35.17
2023-05-02T16:34:56.871Z,35.07
2023-05-02T16:37:41.741Z,34.70
2023-05-02T16:40:27.368Z,34.34
2023-05-02T16:43:18.633Z,34.08
2023-05-02T16:46:06.224Z,34.47
2023-05-02T16:48:49.700Z,33.76
2023-05-02T16:51:39.686Z,34.04
2023-05-02T16:54:35.761Z,34.65
2023-05-02T16:57:20.945Z,34.70
2023-05-02T17:00:17.739Z,34.64
2023-05-02T17:03:01.649Z,34.26
2023-05-02T17:05:45.917Z,34.25
2023-05-02T17:08:40.865Z,34.17
2023-05-02T17:11:25.637Z,36.63
2023-05-02T17:14:13.828Z,36.40
2023-05-02T17:17:00.285Z,37.79
2023-05-02T17:19:44.596Z,37.63
2023-05-02T17:22:27.123Z,37.84
2023-05-02T17:25:23.660Z,38.76
2023-05-02T17:28:07.741Z,39.63
2023-05-02T17:30:59.904Z,39.30
2023-05-02T17:33:53.677Z,39.78
2023-05-02T17:36:42.622Z,41.20
2023-05-02T17:39:38.570Z,39.97
2023-05-02T17:42:34.063Z,40.45
2023-05-02T17:45:18.350Z,41.19
2023-05-02T17:48:14.744Z,42.53
2023-05-02T17:51:07.210Z,41.63
2023-05-02T17:54:08.593Z,41.65
2023-05-02T17:56:52.861Z,41.06
2023-05-02T18:02:27.872Z,42.67
2023-05-02T18:05:12.572Z,44.59
2023-05-02T18:08:14.873Z,44.23
2023-05-02T18:14:42.667Z,46.47
2023-05-02T18:17:27.188Z,46.11
2023-05-02T18:20:30.703Z,46.47
2023-05-02T18:23:10.120Z,48.25
2023-05-02T18:26:11.921Z,48.13
2023-05-02T18:28:54.996Z,48.44
2023-05-02T18:31:40.510Z,48.35
2023-05-02T18:34:24.661Z,50.12
2023-05-02T18:37:07.961Z,51.69
2023-05-02T18:40:03.784Z,52.64
2023-05-02T18:42:53.729Z,52.91
2023-05-02T18:45:45.656Z,53.31
2023-05-02T18:48:27.618Z,53.93
2023-05-02T18:51:19.553Z,55.79
2023-05-02T18:54:03.880Z,55.58
2023-05-02T18:56:59.989Z,55.35
2023-05-02T18:59:51.666Z,56.95
2023-05-02T19:05:29.445Z,57.96
2023-05-02T19:08:14.852Z,56.74
2023-05-02T19:11:05.681Z,57.36
2023-05-02T19:14:03.716Z,57.88
2023-05-02T19:16:50.102Z,58.98
2023-05-02T19:20:10.963Z,58.52
2023-05-02T19:23:07.199Z,60.07
2023-05-02T19:25:42.635Z,59.75
2023-05-02T19:28:24.888Z,61.00
2023-05-02T19:31:17.714Z,58.86
2023-05-02T19:34:07.077Z,62.06
2023-05-02T19:36:57.043Z,60.62
2023-05-02T19:39:41.187Z,60.85
2023-05-02T19:42:16.870Z,62.45
2023-05-02T19:45:03.831Z,62.32
2023-05-02T19:48:00.178Z,62.55
2023-05-02T19:50:57.712Z,62.54
2023-05-02T19:53:41.610Z,61.89
2023-05-02T19:56:26.162Z,61.73
2023-05-02T20:01:58.956Z,62.13
2023-05-02T20:04:55.886Z,60.88
2023-05-02T20:07:44.581Z,61.33
2023-05-02T20:10:40.966Z,60.57
2023-05-02T20:13:25.679Z,60.88
2023-05-02T20:16:32.142Z,61.96
2023-05-02T20:19:15.150Z,62.96
2023-05-02T20:22:24.308Z,62.19
2023-05-02T20:25:04.155Z,61.70
2023-05-02T20:28:11.597Z,62.74
2023-05-02T20:30:53.891Z,60.80
2023-05-02T20:33:58.621Z,61.36
2023-05-02T20:36:43.373Z,61.29
2023-05-02T20:39:48.879Z,61.54
2023-05-02T20:42:24.873Z,61.34
2023-05-02T20:45:25.695Z,63.24
2023-05-02T20:48:18.377Z,63.72
2023-05-02T20:51:09.011Z,63.93
2023-05-02T20:53:57.274Z,63.93
2023-05-02T20:56:39.435Z,63.75
2023-05-02T20:59:14.096Z,63.86
2023-05-02T21:02:03.875Z,61.95
2023-05-02T21:04:32.903Z,61.63
2023-05-02T21:07:09.690Z,62.72
2023-05-02T21:09:37.217Z,61.92
2023-05-02T21:12:08.712Z,61.41
2023-05-02T21:17:17.621Z,61.61
2023-05-02T21:19:47.794Z,61.92
2023-05-02T21:22:15.398Z,61.73
2023-05-02T21:24:48.553Z,63.63
2023-05-02T21:27:17.027Z,63.11
2023-05-02T21:29:45.200Z,62.60
2023-05-02T21:32:12.810Z,62.76
2023-05-02T21:34:40.848Z,62.22
2023-05-02T21:37:08.471Z,62.34
2023-05-02T21:39:36.120Z,61.58
2023-05-02T21:42:05.829Z,61.03
2023-05-02T21:44:34.134Z,60.86
2023-05-02T21:47:02.852Z,60.86
2023-05-02T21:49:31.190Z,61.04
2023-05-02T21:51:59.982Z,62.32
2023-05-02T21:54:35.568Z,62.12
2023-05-02T21:57:03.753Z,62.63
2023-05-02T21:59:31.186Z,62.88
2023-05-02T22:01:58.819Z,63.15
2023-05-02T22:04:27.387Z,63.19
2023-05-02T22:06:55.739Z,62.50
2023-05-02T22:09:24.207Z,62.84
2023-05-02T22:11:55.804Z,63.32
2023-05-02T22:14:33.291Z,63.71
2023-05-02T22:17:08.900Z,63.79
2023-05-02T22:19:37.572Z,64.03
2023-05-02T22:22:05.735Z,62.95
2023-05-02T22:24:33.830Z,63.65
2023-05-02T22:27:03.721Z,63.90
2023-05-02T22:29:31.675Z,63.72
2023-05-02T22:31:59.739Z,64.70
2023-05-02T22:34:27.445Z,64.30
2023-05-02T22:36:55.803Z,64.29
2023-05-02T22:39:24.374Z,63.52
2023-05-02T22:41:51.790Z,64.13
2023-05-02T22:44:19.850Z,63.72
2023-05-02T22:46:48.228Z,62.58
2023-05-02T22:49:15.971Z,63.06
2023-05-02T22:51:45.216Z,63.64
2023-05-02T22:54:15.228Z,64.23
2023-05-02T22:56:43.063Z,63.27
2023-05-02T22:59:10.782Z,62.86
2023-05-02T23:01:38.537Z,63.27
2023-05-02T23:04:07.509Z,64.75
2023-05-02T23:06:35.624Z,62.94
2023-05-02T23:09:03.763Z,62.49
2023-05-02T23:11:31.387Z,63.26
2023-05-02T23:13:58.873Z,63.85
2023-05-02T23:16:30.891Z,63.41
2023-05-02T23:18:59.295Z,62.99
2023-05-02T23:21:28.079Z,63.95
2023-05-02T23:23:55.907Z,63.74
2023-05-02T23:26:23.861Z,63.74
2023-05-02T23:28:52.133Z,63.67
2023-05-02T23:31:19.726Z,63.42
2023-05-02T23:33:47.555Z,63.91
2023-05-02T23:36:15.509Z,63.63
2023-05-02T23:38:42.900Z,63.62
2023-05-02T23:41:10.239Z,64.54
2023-05-02T23:43:39.453Z,63.75
2023-05-02T23:46:08.937Z,63.51
2023-05-02T23:48:36.743Z,64.41
2023-05-02T23:51:04.717Z,64.38
2023-05-02T23:53:33.062Z,64.29
2023-05-02T23:56:01.354Z,63.64
2023-05-02T23:58:30.131Z,63.90
